LEZGLESO

Guest
Details From LEZG - Zaragoza AB
To LESO - San_Sebastian
Flight Number -
Tags generated
Created
Modified
Stats Distance 107 nm / 199 km
Max Altitude 10,100 ft / 3,078 m
Waypoints 3
Social Downloads 0
Likes 0
Share VATSIM

Download

Looking for another format? Having issues loading an existing format? Contact us
Advertisement - Login to hide

Notes

Basic altitude profile: - Ascent Rate: 2500ft/min - Ascent Speed: 250kts - Cruise Altitude: 35000ft - Cruise Speed: 420kts - Descent Rate: 1500ft/min - Descent Speed: 250kts

Route

LEZG LARDA LESO

ID Type Via Altitude Latitude Longitude Leg Dist Tot Dist Heading (true) Name
O LEZG APT - 0 ft / 0 m 41.66703˚ -1.04356˚ - 0 nm - Zaragoza AB
LARDA FIX - 10,100 ft / 3,078 m 42.13158˚ -1.36209˚ 31 nm 31 nm 333° / 333° -
O LESO APT - 0 ft / 0 m 43.35652˚ -1.79061˚ 75 nm 107 nm 346° / 345° San_Sebastian

Altitude Profile

Advertisement - Login to hide

LEZG

Details ICAO LEZG (ZAZ)
Name Zaragoza AB
Region Spain
Timezone Europe/Madrid (UTC+1.0)
Stats Elevation 862 ft / 263 m (AMSL)
Location 41.667030° -1.043559°
Runways 2
Magnetic Variation 0.011° W

METAR

LEZG 160900Z 27010KT 9999 FEW040 SCT085 05/02 Q1020

Decode

TAF

TAF LEZG 160500Z 1606/1706 29010KT 9999 FEW030 TX11/1613Z TN03/1606Z PROB30 TEMPO 1612/1618 30015G25KT

Decode

Departure Runways

ID Width Length Bearing (true) Bearing (mag) Surface Threshold Offset Overrun Length
12L 148 ft / 45 m 9,934 ft / 3,028 m 120.12° 120.13° Asphalt 0 ft / 0 m 984 ft / 300 m
12R 148 ft / 45 m 12,181 ft / 3,713 m 120.10° 120.11° Asphalt 0 ft / 0 m 984 ft / 300 m
30L 148 ft / 45 m 12,181 ft / 3,713 m 300.12° 300.13° Asphalt 0 ft / 0 m 984 ft / 300 m
30R 148 ft / 45 m 9,934 ft / 3,028 m 300.14° 300.15° Asphalt 0 ft / 0 m 607 ft / 185 m

LESO

Details ICAO LESO (EAS)
Name San_Sebastian
Region Spain
Timezone Europe/Madrid (UTC+1.0)
Stats Elevation 14 ft / 4 m (AMSL)
Location 43.356520° -1.790611°
Runways 1
Magnetic Variation 0.297° W

METAR

LESO 160900Z 23003KT 200V270 9999 BKN045 07/06 Q1021

Decode

TAF

TAF LESO 160500Z 1606/1706 27008KT 9999 SCT030 BKN050 TX11/1614Z TN05/1706Z TEMPO 1606/1609 35010KT TEMPO 1606/1706 RA TEMPO 1606/1612 3000 SHRA SCT030TCU PROB40 TEMPO 1606/1612 TS SHGR SCT030CB

Decode

Destination Runways

ID Width Length Bearing (true) Bearing (mag) Surface Threshold Offset Overrun Length
04 148 ft / 45 m 5,762 ft / 1,756 m 38.68° 38.98° Asphalt 0 ft / 0 m 0 ft / 0 m
22 148 ft / 45 m 5,762 ft / 1,756 m 218.69° 218.99° Asphalt 0 ft / 0 m 0 ft / 0 m

Popular Alternatives